sensor_id;sensor_type;location;lat;lon;timestamp;pressure;altitude;pressure_sealevel;temperature;humidity
54262;BME280;40174;52.364;6.452;2023-08-12T00:00:01;101570.28;;;20.45;100.00
54262;BME280;40174;52.364;6.452;2023-08-12T00:02:34;101569.09;;;20.40;100.00
54262;BME280;40174;52.364;6.452;2023-08-12T00:05:01;101565.94;;;20.36;100.00
54262;BME280;40174;52.364;6.452;2023-08-12T00:07:29;101568.94;;;20.33;100.00
54262;BME280;40174;52.364;6.452;2023-08-12T00:09:56;101567.44;;;20.30;100.00
54262;BME280;40174;52.364;6.452;2023-08-12T00:12:24;101566.75;;;20.28;100.00
54262;BME280;40174;52.364;6.452;2023-08-12T00:14:50;101564.44;;;20.25;100.00
54262;BME280;40174;52.364;6.452;2023-08-12T00:17:17;101556.69;;;20.22;100.00
54262;BME280;40174;52.364;6.452;2023-08-12T00:19:44;101558.75;;;20.20;100.00
54262;BME280;40174;52.364;6.452;2023-08-12T00:22:10;101555.38;;;20.18;100.00
54262;BME280;40174;52.364;6.452;2023-08-12T00:24:38;101554.19;;;20.21;100.00
54262;BME280;40174;52.364;6.452;2023-08-12T00:27:05;101549.81;;;20.20;100.00
54262;BME280;40174;52.364;6.452;2023-08-12T00:29:33;101536.91;;;20.15;100.00
54262;BME280;40174;52.364;6.452;2023-08-12T00:32:00;101547.16;;;20.11;100.00
54262;BME280;40174;52.364;6.452;2023-08-12T00:34:27;101552.53;;;20.11;100.00
54262;BME280;40174;52.364;6.452;2023-08-12T00:36:53;101549.50;;;20.06;100.00
54262;BME280;40174;52.364;6.452;2023-08-12T00:39:21;101544.47;;;20.03;100.00
54262;BME280;40174;52.364;6.452;2023-08-12T00:41:48;101549.69;;;20.05;100.00
54262;BME280;40174;52.364;6.452;2023-08-12T00:44:15;101536.59;;;20.02;100.00
54262;BME280;40174;52.364;6.452;2023-08-12T00:46:43;101535.06;;;19.99;100.00
54262;BME280;40174;52.364;6.452;2023-08-12T00:49:11;101538.94;;;19.97;100.00
54262;BME280;40174;52.364;6.452;2023-08-12T00:51:39;101539.59;;;19.90;100.00
54262;BME280;40174;52.364;6.452;2023-08-12T00:54:06;101541.59;;;19.88;100.00
54262;BME280;40174;52.364;6.452;2023-08-12T00:56:35;101540.63;;;19.89;100.00
54262;BME280;40174;52.364;6.452;2023-08-12T00:59:04;101541.28;;;19.91;100.00
54262;BME280;40174;52.364;6.452;2023-08-12T01:03:58;101535.75;;;19.93;100.00
54262;BME280;40174;52.364;6.452;2023-08-12T01:06:24;101534.06;;;19.92;100.00
54262;BME280;40174;52.364;6.452;2023-08-12T01:08:51;101527.69;;;19.93;100.00
54262;BME280;40174;52.364;6.452;2023-08-12T01:11:23;101519.66;;;19.93;100.00
54262;BME280;40174;52.364;6.452;2023-08-12T01:13:58;101519.31;;;19.88;100.00
54262;BME280;40174;52.364;6.452;2023-08-12T01:16:30;101513.97;;;19.88;100.00
54262;BME280;40174;52.364;6.452;2023-08-12T01:19:01;101513.13;;;19.87;100.00
54262;BME280;40174;52.364;6.452;2023-08-12T01:21:30;101504.75;;;19.82;100.00
54262;BME280;40174;52.364;6.452;2023-08-12T01:23:59;101509.59;;;19.79;100.00
54262;BME280;40174;52.364;6.452;2023-08-12T01:26:26;101504.91;;;19.81;100.00
54262;BME280;40174;52.364;6.452;2023-08-12T01:28:53;101499.38;;;19.82;100.00
54262;BME280;40174;52.364;6.452;2023-08-12T01:31:25;101481.44;;;19.83;100.00
54262;BME280;40174;52.364;6.452;2023-08-12T01:33:59;101486.97;;;19.81;100.00
54262;BME280;40174;52.364;6.452;2023-08-12T01:36:30;101493.50;;;19.79;100.00
54262;BME280;40174;52.364;6.452;2023-08-12T01:39:00;101492.00;;;19.76;100.00
54262;BME280;40174;52.364;6.452;2023-08-12T01:41:27;101486.63;;;19.76;100.00
54262;BME280;40174;52.364;6.452;2023-08-12T01:43:54;101481.13;;;19.78;100.00
54262;BME280;40174;52.364;6.452;2023-08-12T01:46:21;101480.78;;;19.81;100.00
54262;BME280;40174;52.364;6.452;2023-08-12T01:48:48;101473.72;;;19.80;100.00
54262;BME280;40174;52.364;6.452;2023-08-12T01:51:16;101481.75;;;19.80;100.00
54262;BME280;40174;52.364;6.452;2023-08-12T01:53:43;101478.59;;;19.76;100.00
54262;BME280;40174;52.364;6.452;2023-08-12T01:56:12;101473.22;;;19.76;100.00
54262;BME280;40174;52.364;6.452;2023-08-12T01:58:39;101471.03;;;19.80;100.00
54262;BME280;40174;52.364;6.452;2023-08-12T02:01:06;101471.03;;;19.80;100.00
54262;BME280;40174;52.364;6.452;2023-08-12T02:03:32;101465.66;;;19.80;100.00
54262;BME280;40174;52.364;6.452;2023-08-12T02:05:59;101467.72;;;19.78;100.00
54262;BME280;40174;52.364;6.452;2023-08-12T02:08:26;101459.00;;;19.76;100.00
54262;BME280;40174;52.364;6.452;2023-08-12T02:10:52;101454.63;;;19.75;100.00
54262;BME280;40174;52.364;6.452;2023-08-12T02:13:20;101459.81;;;19.76;100.00
54262;BME280;40174;52.364;6.452;2023-08-12T02:15:47;101465.19;;;19.76;100.00
54262;BME280;40174;52.364;6.452;2023-08-12T02:18:14;101457.28;;;19.75;100.00
54262;BME280;40174;52.364;6.452;2023-08-12T02:20:41;101457.97;;;19.77;100.00
54262;BME280;40174;52.364;6.452;2023-08-12T02:23:07;101452.75;;;19.75;100.00
54262;BME280;40174;52.364;6.452;2023-08-12T02:25:34;101452.28;;;19.71;100.00
54262;BME280;40174;52.364;6.452;2023-08-12T02:28:01;101445.22;;;19.70;100.00
54262;BME280;40174;52.364;6.452;2023-08-12T02:30:29;101441.72;;;19.70;100.00
54262;BME280;40174;52.364;6.452;2023-08-12T02:32:57;101447.19;;;19.68;100.00
54262;BME280;40174;52.364;6.452;2023-08-12T02:35:23;101443.56;;;19.69;100.00
54262;BME280;40174;52.364;6.452;2023-08-12T02:37:50;101443.88;;;19.66;100.00
54262;BME280;40174;52.364;6.452;2023-08-12T02:40:18;101439.00;;;19.62;100.00
54262;BME280;40174;52.364;6.452;2023-08-12T02:42:45;101441.84;;;19.60;100.00
54262;BME280;40174;52.364;6.452;2023-08-12T02:45:11;101434.31;;;19.56;100.00
54262;BME280;40174;52.364;6.452;2023-08-12T02:47:39;101435.16;;;19.56;100.00
54262;BME280;40174;52.364;6.452;2023-08-12T02:50:07;101431.94;;;19.52;100.00
54262;BME280;40174;52.364;6.452;2023-08-12T02:52:34;101429.63;;;19.49;100.00
54262;BME280;40174;52.364;6.452;2023-08-12T02:55:01;101414.72;;;19.47;100.00
54262;BME280;40174;52.364;6.452;2023-08-12T02:57:28;101418.38;;;19.46;100.00
54262;BME280;40174;52.364;6.452;2023-08-12T02:59:55;101423.94;;;19.44;100.00
54262;BME280;40174;52.364;6.452;2023-08-12T03:02:21;101407.34;;;19.41;100.00
54262;BME280;40174;52.364;6.452;2023-08-12T03:04:50;101408.66;;;19.37;100.00
54262;BME280;40174;52.364;6.452;2023-08-12T03:07:17;101408.66;;;19.37;100.00
54262;BME280;40174;52.364;6.452;2023-08-12T03:09:44;101407.16;;;19.34;100.00
54262;BME280;40174;52.364;6.452;2023-08-12T03:12:10;101404.81;;;19.31;100.00
54262;BME280;40174;52.364;6.452;2023-08-12T03:14:37;101406.84;;;19.29;100.00
54262;BME280;40174;52.364;6.452;2023-08-12T03:17:04;101406.31;;;19.25;100.00
54262;BME280;40174;52.364;6.452;2023-08-12T03:19:32;101400.13;;;19.25;100.00
54262;BME280;40174;52.364;6.452;2023-08-12T03:22:00;101396.44;;;19.26;100.00
54262;BME280;40174;52.364;6.452;2023-08-12T03:24:27;101402.47;;;19.28;100.00
54262;BME280;40174;52.364;6.452;2023-08-12T03:26:53;101401.63;;;19.27;100.00
54262;BME280;40174;52.364;6.452;2023-08-12T03:29:20;101387.25;;;19.28;100.00
54262;BME280;40174;52.364;6.452;2023-08-12T03:31:48;101384.72;;;19.27;100.00
54262;BME280;40174;52.364;6.452;2023-08-12T03:34:14;101394.59;;;19.26;100.00
54262;BME280;40174;52.364;6.452;2023-08-12T03:36:42;101389.25;;;19.26;100.00
54262;BME280;40174;52.364;6.452;2023-08-12T03:39:13;101382.03;;;19.27;100.00
54262;BME280;40174;52.364;6.452;2023-08-12T03:41:41;101386.72;;;19.25;100.00
54262;BME280;40174;52.364;6.452;2023-08-12T03:44:08;101381.53;;;19.23;100.00
54262;BME280;40174;52.364;6.452;2023-08-12T03:46:34;101381.53;;;19.23;100.00
54262;BME280;40174;52.364;6.452;2023-08-12T03:49:01;101384.38;;;19.22;100.00
54262;BME280;40174;52.364;6.452;2023-08-12T03:51:29;101381.53;;;19.23;100.00
54262;BME280;40174;52.364;6.452;2023-08-12T03:53:56;101372.50;;;19.24;100.00
54262;BME280;40174;52.364;6.452;2023-08-12T03:56:24;101366.31;;;19.24;100.00
54262;BME280;40174;52.364;6.452;2023-08-12T03:58:51;101366.94;;;19.26;100.00
54262;BME280;40174;52.364;6.452;2023-08-12T04:01:17;101375.00;;;19.26;100.00
54262;BME280;40174;52.364;6.452;2023-08-12T04:03:44;101378.69;;;19.25;100.00
54262;BME280;40174;52.364;6.452;2023-08-12T04:06:11;101371.47;;;19.25;100.00
54262;BME280;40174;52.364;6.452;2023-08-12T04:08:38;101372.31;;;19.26;100.00
54262;BME280;40174;52.364;6.452;2023-08-12T04:11:05;101367.63;;;19.28;100.00
54262;BME280;40174;52.364;6.452;2023-08-12T04:13:33;101364.13;;;19.27;100.00
54262;BME280;40174;52.364;6.452;2023-08-12T04:16:00;101366.78;;;19.27;100.00
54262;BME280;40174;52.364;6.452;2023-08-12T04:18:27;101369.47;;;19.27;100.00
54262;BME280;40174;52.364;6.452;2023-08-12T04:20:53;101362.25;;;19.28;100.00
54262;BME280;40174;52.364;6.452;2023-08-12T04:23:20;101364.13;;;19.27;100.00
54262;BME280;40174;52.364;6.452;2023-08-12T04:25:47;101354.22;;;19.28;100.00
54262;BME280;40174;52.364;6.452;2023-08-12T04:28:15;101358.44;;;19.30;100.00
54262;BME280;40174;52.364;6.452;2023-08-12T04:30:44;101349.53;;;19.30;100.00
54262;BME280;40174;52.364;6.452;2023-08-12T04:33:14;101358.75;;;19.27;100.00
54262;BME280;40174;52.364;6.452;2023-08-12T04:35:41;101348.03;;;19.27;100.00
54262;BME280;40174;52.364;6.452;2023-08-12T04:38:08;101347.19;;;19.27;100.00
54262;BME280;40174;52.364;6.452;2023-08-12T04:40:38;101343.03;;;19.24;100.00
54262;BME280;40174;52.364;6.452;2023-08-12T04:43:05;101332.31;;;19.24;100.00
54262;BME280;40174;52.364;6.452;2023-08-12T04:45:32;101328.59;;;19.25;100.00
54262;BME280;40174;52.364;6.452;2023-08-12T04:48:00;101324.25;;;19.24;100.00
54262;BME280;40174;52.364;6.452;2023-08-12T04:50:29;101317.72;;;19.27;100.00
54262;BME280;40174;52.364;6.452;2023-08-12T04:52:56;101313.53;;;19.24;100.00
54262;BME280;40174;52.364;6.452;2023-08-12T04:55:24;101313.53;;;19.24;100.00
54262;BME280;40174;52.364;6.452;2023-08-12T04:57:52;101322.41;;;19.25;100.00
54262;BME280;40174;52.364;6.452;2023-08-12T05:00:19;101318.56;;;19.27;100.00
54262;BME280;40174;52.364;6.452;2023-08-12T05:02:46;101312.38;;;19.27;100.00
54262;BME280;40174;52.364;6.452;2023-08-12T05:05:15;101315.88;;;19.27;100.00
54262;BME280;40174;52.364;6.452;2023-08-12T05:07:41;101306.84;;;19.28;100.00
54262;BME280;40174;52.364;6.452;2023-08-12T05:10:11;101302.31;;;19.29;100.00
54262;BME280;40174;52.364;6.452;2023-08-12T05:12:38;101301.31;;;19.30;100.00
54262;BME280;40174;52.364;6.452;2023-08-12T05:15:05;101300.31;;;19.31;100.00
54262;BME280;40174;52.364;6.452;2023-08-12T05:17:32;101299.81;;;19.36;100.00
54262;BME280;40174;52.364;6.452;2023-08-12T05:19:59;101298.47;;;19.40;100.00
54262;BME280;40174;52.364;6.452;2023-08-12T05:22:27;101290.91;;;19.43;100.00
54262;BME280;40174;52.364;6.452;2023-08-12T05:24:54;101284.03;;;19.49;100.00
54262;BME280;40174;52.364;6.452;2023-08-12T05:27:20;101287.84;;;19.55;100.00
54262;BME280;40174;52.364;6.452;2023-08-12T05:29:47;101290.88;;;19.60;100.00
54262;BME280;40174;52.364;6.452;2023-08-12T05:32:14;101290.53;;;19.63;100.00
54262;BME280;40174;52.364;6.452;2023-08-12T05:34:41;101293.53;;;19.68;100.00
54262;BME280;40174;52.364;6.452;2023-08-12T05:37:07;101288.19;;;19.76;100.00
54262;BME280;40174;52.364;6.452;2023-08-12T05:39:35;101309.63;;;19.84;100.00
54262;BME280;40174;52.364;6.452;2023-08-12T05:42:02;101299.88;;;19.91;100.00
54262;BME280;40174;52.364;6.452;2023-08-12T05:44:29;101303.03;;;19.95;100.00
54262;BME280;40174;52.364;6.452;2023-08-12T05:46:56;101296.31;;;19.99;100.00
54262;BME280;40174;52.364;6.452;2023-08-12T05:49:22;101307.53;;;20.03;100.00
54262;BME280;40174;52.364;6.452;2023-08-12T05:51:49;101302.66;;;20.06;100.00
54262;BME280;40174;52.364;6.452;2023-08-12T05:54:16;101297.28;;;20.06;100.00
54262;BME280;40174;52.364;6.452;2023-08-12T05:56:44;101293.59;;;20.07;100.00
54262;BME280;40174;52.364;6.452;2023-08-12T05:59:11;101287.06;;;20.10;100.00
54262;BME280;40174;52.364;6.452;2023-08-12T06:01:37;101291.25;;;20.04;100.00
54262;BME280;40174;52.364;6.452;2023-08-12T06:04:04;101283.88;;;20.06;100.00
54262;BME280;40174;52.364;6.452;2023-08-12T06:06:31;101271.47;;;20.05;100.00
54262;BME280;40174;52.364;6.452;2023-08-12T06:08:58;101268.63;;;20.07;100.00
54262;BME280;40174;52.364;6.452;2023-08-12T06:11:24;101258.06;;;20.05;100.00
54262;BME280;40174;52.364;6.452;2023-08-12T06:13:52;101257.91;;;20.07;100.00
54262;BME280;40174;52.364;6.452;2023-08-12T06:16:19;101255.38;;;20.05;100.00
54262;BME280;40174;52.364;6.452;2023-08-12T06:18:46;101253.69;;;20.04;100.00
54262;BME280;40174;52.364;6.452;2023-08-12T06:21:12;101267.06;;;20.12;100.00
54262;BME280;40174;52.364;6.452;2023-08-12T06:23:39;101274.53;;;20.02;100.00
54262;BME280;40174;52.364;6.452;2023-08-12T06:26:06;101284.22;;;20.03;100.00
54262;BME280;40174;52.364;6.452;2023-08-12T06:28:33;101290.78;;;20.01;100.00
54262;BME280;40174;52.364;6.452;2023-08-12T06:31:01;101274.03;;;19.99;100.00
54262;BME280;40174;52.364;6.452;2023-08-12T06:33:27;101269.84;;;19.96;100.00
54262;BME280;40174;52.364;6.452;2023-08-12T06:35:54;101268.16;;;19.95;100.00
54262;BME280;40174;52.364;6.452;2023-08-12T06:38:21;101263.97;;;19.92;100.00
54262;BME280;40174;52.364;6.452;2023-08-12T06:40:47;101261.97;;;19.86;100.00
54262;BME280;40174;52.364;6.452;2023-08-12T06:43:14;101265.34;;;19.88;100.00
54262;BME280;40174;52.364;6.452;2023-08-12T06:45:41;101255.25;;;19.90;100.00
54262;BME280;40174;52.364;6.452;2023-08-12T06:48:09;101273.06;;;19.91;100.00
54262;BME280;40174;52.364;6.452;2023-08-12T06:50:35;101284.78;;;19.90;100.00
54262;BME280;40174;52.364;6.452;2023-08-12T06:53:02;101264.19;;;19.91;100.00
54262;BME280;40174;52.364;6.452;2023-08-12T06:55:29;101257.28;;;19.88;100.00
54262;BME280;40174;52.364;6.452;2023-08-12T06:57:56;101267.72;;;19.83;100.00
54262;BME280;40174;52.364;6.452;2023-08-12T07:00:22;101252.13;;;19.79;100.00
54262;BME280;40174;52.364;6.452;2023-08-12T07:02:49;101246.09;;;19.77;100.00
54262;BME280;40174;52.364;6.452;2023-08-12T07:05:17;101252.28;;;19.77;100.00
54262;BME280;40174;52.364;6.452;2023-08-12T07:07:44;101251.00;;;19.73;100.00
54262;BME280;40174;52.364;6.452;2023-08-12T07:10:10;101254.50;;;19.73;100.00
54262;BME280;40174;52.364;6.452;2023-08-12T07:12:37;101257.00;;;19.75;100.00
54262;BME280;40174;52.364;6.452;2023-08-12T07:15:04;101258.69;;;19.76;100.00
54262;BME280;40174;52.364;6.452;2023-08-12T07:17:31;101250.28;;;19.79;100.00
54262;BME280;40174;52.364;6.452;2023-08-12T07:19:58;101255.84;;;19.78;100.00
54262;BME280;40174;52.364;6.452;2023-08-12T07:22:26;101247.78;;;19.78;100.00
54262;BME280;40174;52.364;6.452;2023-08-12T07:24:53;101244.25;;;19.77;100.00
54262;BME280;40174;52.364;6.452;2023-08-12T07:27:20;101241.91;;;19.82;100.00
54262;BME280;40174;52.364;6.452;2023-08-12T07:29:47;101243.72;;;19.82;100.00
54262;BME280;40174;52.364;6.452;2023-08-12T07:32:14;101238.38;;;19.82;100.00
54262;BME280;40174;52.364;6.452;2023-08-12T07:34:40;101236.03;;;19.79;100.00
54262;BME280;40174;52.364;6.452;2023-08-12T07:37:07;101236.03;;;19.79;100.00
54262;BME280;40174;52.364;6.452;2023-08-12T07:39:35;101232.53;;;19.78;100.00
54262;BME280;40174;52.364;6.452;2023-08-12T07:42:02;101229.66;;;19.80;100.00
54262;BME280;40174;52.364;6.452;2023-08-12T07:44:29;101223.31;;;19.81;100.00
54262;BME280;40174;52.364;6.452;2023-08-12T07:46:55;101214.06;;;19.83;100.00
54262;BME280;40174;52.364;6.452;2023-08-12T07:49:22;101218.25;;;19.86;100.00
54262;BME280;40174;52.364;6.452;2023-08-12T07:51:49;101215.25;;;19.81;100.00
54262;BME280;40174;52.364;6.452;2023-08-12T07:54:15;101224.50;;;19.78;100.00
54262;BME280;40174;52.364;6.452;2023-08-12T07:56:43;101223.66;;;19.78;100.00
54262;BME280;40174;52.364;6.452;2023-08-12T07:59:10;101209.22;;;19.79;100.00
54262;BME280;40174;52.364;6.452;2023-08-12T08:01:37;101210.41;;;19.76;100.00
54262;BME280;40174;52.364;6.452;2023-08-12T08:04:04;101208.69;;;19.83;100.00
54262;BME280;40174;52.364;6.452;2023-08-12T08:06:31;101211.22;;;19.85;100.00
54262;BME280;40174;52.364;6.452;2023-08-12T08:08:58;101207.22;;;19.81;100.00
54262;BME280;40174;52.364;6.452;2023-08-12T08:11:28;101219.44;;;19.83;100.00
54262;BME280;40174;52.364;6.452;2023-08-12T08:13:57;101219.44;;;19.83;100.00
54262;BME280;40174;52.364;6.452;2023-08-12T08:16:24;101211.91;;;19.79;100.00
54262;BME280;40174;52.364;6.452;2023-08-12T08:18:51;101217.78;;;19.74;100.00
54262;BME280;40174;52.364;6.452;2023-08-12T08:21:18;101215.78;;;19.76;100.00
54262;BME280;40174;52.364;6.452;2023-08-12T08:23:45;101200.34;;;19.78;100.00
54262;BME280;40174;52.364;6.452;2023-08-12T08:26:12;101212.28;;;19.76;100.00
54262;BME280;40174;52.364;6.452;2023-08-12T08:28:40;101206.03;;;19.75;100.00
54262;BME280;40174;52.364;6.452;2023-08-12T08:31:09;101204.75;;;19.71;100.00
54262;BME280;40174;52.364;6.452;2023-08-12T08:33:35;101205.75;;;19.70;100.00
54262;BME280;40174;52.364;6.452;2023-08-12T08:36:02;101206.75;;;19.69;100.00
54262;BME280;40174;52.364;6.452;2023-08-12T08:38:29;101200.72;;;19.67;100.00
54262;BME280;40174;52.364;6.452;2023-08-12T08:40:57;101201.22;;;19.70;100.00
54262;BME280;40174;52.364;6.452;2023-08-12T08:43:26;101194.03;;;19.71;100.00
54262;BME280;40174;52.364;6.452;2023-08-12T08:45:54;101191.16;;;19.72;100.00
54262;BME280;40174;52.364;6.452;2023-08-12T08:48:23;101180.91;;;19.68;100.00
54262;BME280;40174;52.364;6.452;2023-08-12T08:50:50;101195.84;;;19.70;100.00
54262;BME280;40174;52.364;6.452;2023-08-12T08:53:17;101185.97;;;19.71;100.00
54262;BME280;40174;52.364;6.452;2023-08-12T08:55:45;101190.69;;;19.69;100.00
54262;BME280;40174;52.364;6.452;2023-08-12T08:58:11;101186.97;;;19.70;100.00
54262;BME280;40174;52.364;6.452;2023-08-12T09:00:38;101185.97;;;19.71;100.00
54262;BME280;40174;52.364;6.452;2023-08-12T09:03:06;101172.22;;;19.74;100.00
54262;BME280;40174;52.364;6.452;2023-08-12T09:05:36;101171.53;;;19.72;100.00
54262;BME280;40174;52.364;6.452;2023-08-12T09:08:05;101168.69;;;19.73;100.00
54262;BME280;40174;52.364;6.452;2023-08-12T09:10:36;101166.47;;;19.77;100.00
54262;BME280;40174;52.364;6.452;2023-08-12T09:13:06;101161.13;;;19.77;100.00
54262;BME280;40174;52.364;6.452;2023-08-12T09:15:34;101170.66;;;19.80;100.00
54262;BME280;40174;52.364;6.452;2023-08-12T09:18:00;101171.31;;;19.82;100.00
54262;BME280;40174;52.364;6.452;2023-08-12T09:20:27;101158.56;;;19.84;100.00
54262;BME280;40174;52.364;6.452;2023-08-12T09:22:59;101166.63;;;19.84;100.00
54262;BME280;40174;52.364;6.452;2023-08-12T09:25:26;101161.25;;;19.84;100.00
54262;BME280;40174;52.364;6.452;2023-08-12T09:27:55;101158.69;;;19.90;100.00
54262;BME280;40174;52.364;6.452;2023-08-12T09:30:28;101161.06;;;19.93;100.00
54262;BME280;40174;52.364;6.452;2023-08-12T09:32:59;101161.88;;;19.94;100.00
54262;BME280;40174;52.364;6.452;2023-08-12T09:35:33;101160.69;;;19.97;100.00
54262;BME280;40174;52.364;6.452;2023-08-12T09:38:02;101164.84;;;19.99;100.00
54262;BME280;40174;52.364;6.452;2023-08-12T09:40:30;101160.84;;;19.95;100.00
54262;BME280;40174;52.364;6.452;2023-08-12T09:42:57;101162.88;;;19.93;100.00
54262;BME280;40174;52.364;6.452;2023-08-12T09:45:24;101166.22;;;19.95;100.00
54262;BME280;40174;52.364;6.452;2023-08-12T09:47:52;101169.94;;;19.94;100.00
54262;BME280;40174;52.364;6.452;2023-08-12T09:50:20;101165.53;;;20.01;100.00
54262;BME280;40174;52.364;6.452;2023-08-12T09:52:47;101162.00;;;20.01;100.00
54262;BME280;40174;52.364;6.452;2023-08-12T09:55:16;101156.13;;;20.05;100.00
54262;BME280;40174;52.364;6.452;2023-08-12T09:57:44;101158.25;;;20.10;100.00
54262;BME280;40174;52.364;6.452;2023-08-12T10:00:14;101164.47;;;20.10;100.00
54262;BME280;40174;52.364;6.452;2023-08-12T10:02:44;101164.59;;;20.17;100.00
54262;BME280;40174;52.364;6.452;2023-08-12T10:05:13;101178.16;;;20.15;100.00
54262;BME280;40174;52.364;6.452;2023-08-12T10:07:43;101172.34;;;20.12;100.00
54262;BME280;40174;52.364;6.452;2023-08-12T10:10:11;101172.69;;;20.09;100.00
54262;BME280;40174;52.364;6.452;2023-08-12T10:12:40;101175.56;;;20.07;100.00
54262;BME280;40174;52.364;6.452;2023-08-12T10:15:09;101186.44;;;20.06;100.00
54262;BME280;40174;52.364;6.452;2023-08-12T10:17:36;101178.09;;;20.01;100.00
54262;BME280;40174;52.364;6.452;2023-08-12T10:20:04;101176.09;;;20.03;100.00
54262;BME280;40174;52.364;6.452;2023-08-12T10:22:34;101172.88;;;20.07;100.00
54262;BME280;40174;52.364;6.452;2023-08-12T10:25:02;101180.84;;;20.15;100.00
54262;BME280;40174;52.364;6.452;2023-08-12T10:27:29;101174.44;;;20.25;100.00
54262;BME280;40174;52.364;6.452;2023-08-12T10:29:57;101164.78;;;20.39;100.00
54262;BME280;40174;52.364;6.452;2023-08-12T10:32:24;101163.13;;;20.61;100.00
54262;BME280;40174;52.364;6.452;2023-08-12T10:34:55;101177.66;;;20.66;100.00
54262;BME280;40174;52.364;6.452;2023-08-12T10:37:23;101173.22;;;20.73;100.00
54262;BME280;40174;52.364;6.452;2023-08-12T10:39:51;101171.19;;;20.75;100.00
54262;BME280;40174;52.364;6.452;2023-08-12T10:42:40;101176.59;;;20.90;100.00
54262;BME280;40174;52.364;6.452;2023-08-12T10:45:09;101164.88;;;21.06;100.00
54262;BME280;40174;52.364;6.452;2023-08-12T10:47:40;101159.97;;;21.10;100.00
54262;BME280;40174;52.364;6.452;2023-08-12T10:50:18;101149.22;;;21.10;100.00
54262;BME280;40174;52.364;6.452;2023-08-12T10:52:45;101160.59;;;21.12;100.00
54262;BME280;40174;52.364;6.452;2023-08-12T10:55:19;101162.94;;;21.15;100.00
54262;BME280;40174;52.364;6.452;2023-08-12T10:57:47;101164.69;;;21.23;100.00
54262;BME280;40174;52.364;6.452;2023-08-12T11:00:16;101182.94;;;21.27;100.00
54262;BME280;40174;52.364;6.452;2023-08-12T11:02:49;101185.84;;;21.26;100.00
54262;BME280;40174;52.364;6.452;2023-08-12T11:05:15;101178.94;;;21.23;100.00
54262;BME280;40174;52.364;6.452;2023-08-12T11:07:45;101183.50;;;21.23;100.00
54262;BME280;40174;52.364;6.452;2023-08-12T11:10:14;101190.16;;;21.27;100.00
54262;BME280;40174;52.364;6.452;2023-08-12T11:12:42;101195.00;;;21.31;100.00
54262;BME280;40174;52.364;6.452;2023-08-12T11:15:12;101197.78;;;21.38;100.00
54262;BME280;40174;52.364;6.452;2023-08-12T11:17:41;101188.63;;;21.32;100.00
54262;BME280;40174;52.364;6.452;2023-08-12T11:20:09;101206.66;;;21.38;100.00
54262;BME280;40174;52.364;6.452;2023-08-12T11:22:37;101210.56;;;21.36;100.00
54262;BME280;40174;52.364;6.452;2023-08-12T11:25:05;101191.91;;;21.34;100.00
54262;BME280;40174;52.364;6.452;2023-08-12T11:27:41;101196.28;;;21.35;100.00
54262;BME280;40174;52.364;6.452;2023-08-12T11:30:09;101200.13;;;21.41;100.00
54262;BME280;40174;52.364;6.452;2023-08-12T11:32:37;101219.28;;;21.38;100.00
54262;BME280;40174;52.364;6.452;2023-08-12T11:35:07;101212.81;;;21.32;100.00
54262;BME280;40174;52.364;6.452;2023-08-12T11:37:35;101213.38;;;21.43;100.00
54262;BME280;40174;52.364;6.452;2023-08-12T11:40:04;101221.63;;;21.56;100.00
54262;BME280;40174;52.364;6.452;2023-08-12T11:42:31;101229.53;;;21.57;100.00
54262;BME280;40174;52.364;6.452;2023-08-12T11:44:58;101225.34;;;21.55;100.00
54262;BME280;40174;52.364;6.452;2023-08-12T11:47:25;101233.50;;;21.47;100.00
54262;BME280;40174;52.364;6.452;2023-08-12T11:49:52;101225.34;;;21.55;100.00
54262;BME280;40174;52.364;6.452;2023-08-12T11:52:21;101227.84;;;21.71;100.00
54262;BME280;40174;52.364;6.452;2023-08-12T11:54:49;101223.38;;;21.93;100.00
54262;BME280;40174;52.364;6.452;2023-08-12T11:57:16;101222.38;;;22.16;100.00
54262;BME280;40174;52.364;6.452;2023-08-12T11:59:43;101231.47;;;22.30;100.00
54262;BME280;40174;52.364;6.452;2023-08-12T12:02:10;101233.41;;;22.36;100.00
54262;BME280;40174;52.364;6.452;2023-08-12T12:04:37;101235.31;;;22.63;100.00
54262;BME280;40174;52.364;6.452;2023-08-12T12:07:17;101245.13;;;22.93;100.00
54262;BME280;40174;52.364;6.452;2023-08-12T12:09:45;101241.66;;;22.99;100.00
54262;BME280;40174;52.364;6.452;2023-08-12T12:12:12;101251.34;;;23.43;100.00
54262;BME280;40174;52.364;6.452;2023-08-12T12:14:38;101256.63;;;23.64;100.00
54262;BME280;40174;52.364;6.452;2023-08-12T12:17:07;101261.41;;;23.62;100.00
54262;BME280;40174;52.364;6.452;2023-08-12T12:19:34;101261.72;;;23.46;100.00
54262;BME280;40174;52.364;6.452;2023-08-12T12:22:02;101260.78;;;23.67;100.00
54262;BME280;40174;52.364;6.452;2023-08-12T12:24:30;101267.06;;;23.74;100.00
54262;BME280;40174;52.364;6.452;2023-08-12T12:26:58;101260.69;;;23.75;100.00
54262;BME280;40174;52.364;6.452;2023-08-12T12:29:24;101261.63;;;23.67;100.00
54262;BME280;40174;52.364;6.452;2023-08-12T12:31:51;101259.28;;;23.86;100.00
54262;BME280;40174;52.364;6.452;2023-08-12T12:34:17;101255.84;;;24.12;100.00
54262;BME280;40174;52.364;6.452;2023-08-12T12:36:44;101257.13;;;24.23;100.00
54262;BME280;40174;52.364;6.452;2023-08-12T12:39:11;101252.38;;;24.32;100.00
54262;BME280;40174;52.364;6.452;2023-08-12T12:41:38;101266.97;;;24.44;100.00
54262;BME280;40174;52.364;6.452;2023-08-12T12:44:06;101271.50;;;24.43;100.00